sensor_id;sensor_type;location;lat;lon;timestamp;P1;durP1;ratioP1;P2;durP2;ratioP2
10687;SDS011;5392;42.688;23.298;2023-03-25T00:00:08;20.98;;;14.52;;
10687;SDS011;5392;42.688;23.298;2023-03-25T00:02:40;18.95;;;13.30;;
10687;SDS011;5392;42.688;23.298;2023-03-25T00:05:10;20.58;;;12.55;;
10687;SDS011;5392;42.688;23.298;2023-03-25T00:07:40;18.27;;;12.65;;
10687;SDS011;5392;42.688;23.298;2023-03-25T00:10:08;19.10;;;13.45;;
10687;SDS011;5392;42.688;23.298;2023-03-25T00:12:36;17.30;;;13.23;;
10687;SDS011;5392;42.688;23.298;2023-03-25T00:15:07;16.83;;;13.30;;
10687;SDS011;5392;42.688;23.298;2023-03-25T00:17:36;18.63;;;13.25;;
10687;SDS011;5392;42.688;23.298;2023-03-25T00:20:04;19.98;;;13.40;;
10687;SDS011;5392;42.688;23.298;2023-03-25T00:22:34;16.73;;;12.52;;
10687;SDS011;5392;42.688;23.298;2023-03-25T00:25:07;16.05;;;13.13;;
10687;SDS011;5392;42.688;23.298;2023-03-25T00:27:35;20.02;;;14.13;;
10687;SDS011;5392;42.688;23.298;2023-03-25T00:30:02;24.42;;;14.18;;
10687;SDS011;5392;42.688;23.298;2023-03-25T00:32:29;18.23;;;14.38;;
10687;SDS011;5392;42.688;23.298;2023-03-25T00:34:56;19.83;;;15.30;;
10687;SDS011;5392;42.688;23.298;2023-03-25T00:37:22;19.70;;;14.63;;
10687;SDS011;5392;42.688;23.298;2023-03-25T00:39:50;20.85;;;14.85;;
10687;SDS011;5392;42.688;23.298;2023-03-25T00:42:17;22.00;;;14.80;;
10687;SDS011;5392;42.688;23.298;2023-03-25T00:44:52;17.88;;;15.30;;
10687;SDS011;5392;42.688;23.298;2023-03-25T00:47:19;19.20;;;14.88;;
10687;SDS011;5392;42.688;23.298;2023-03-25T00:49:47;19.70;;;14.90;;
10687;SDS011;5392;42.688;23.298;2023-03-25T00:52:15;20.48;;;14.55;;
10687;SDS011;5392;42.688;23.298;2023-03-25T00:54:42;28.75;;;14.65;;
10687;SDS011;5392;42.688;23.298;2023-03-25T00:57:09;15.23;;;13.07;;
10687;SDS011;5392;42.688;23.298;2023-03-25T00:59:35;15.73;;;12.98;;
10687;SDS011;5392;42.688;23.298;2023-03-25T01:02:02;15.18;;;12.60;;
10687;SDS011;5392;42.688;23.298;2023-03-25T01:04:32;18.02;;;13.05;;
10687;SDS011;5392;42.688;23.298;2023-03-25T01:06:59;17.60;;;13.50;;
10687;SDS011;5392;42.688;23.298;2023-03-25T01:09:26;13.25;;;11.98;;
10687;SDS011;5392;42.688;23.298;2023-03-25T01:11:53;16.38;;;12.60;;
10687;SDS011;5392;42.688;23.298;2023-03-25T01:14:20;21.48;;;12.27;;
10687;SDS011;5392;42.688;23.298;2023-03-25T01:16:49;14.88;;;11.55;;
10687;SDS011;5392;42.688;23.298;2023-03-25T01:19:16;13.48;;;11.80;;
10687;SDS011;5392;42.688;23.298;2023-03-25T01:21:43;18.05;;;12.38;;
10687;SDS011;5392;42.688;23.298;2023-03-25T01:24:11;15.30;;;12.80;;
10687;SDS011;5392;42.688;23.298;2023-03-25T01:26:39;19.35;;;12.75;;
10687;SDS011;5392;42.688;23.298;2023-03-25T01:29:09;17.25;;;12.43;;
10687;SDS011;5392;42.688;23.298;2023-03-25T01:31:36;15.70;;;12.75;;
10687;SDS011;5392;42.688;23.298;2023-03-25T01:34:03;14.07;;;12.18;;
10687;SDS011;5392;42.688;23.298;2023-03-25T01:36:30;17.95;;;13.35;;
10687;SDS011;5392;42.688;23.298;2023-03-25T01:38:57;15.15;;;13.00;;
10687;SDS011;5392;42.688;23.298;2023-03-25T01:41:25;18.17;;;12.40;;
10687;SDS011;5392;42.688;23.298;2023-03-25T01:44:09;16.73;;;12.45;;
10687;SDS011;5392;42.688;23.298;2023-03-25T01:46:55;15.02;;;12.40;;
10687;SDS011;5392;42.688;23.298;2023-03-25T01:49:26;14.10;;;12.07;;
10687;SDS011;5392;42.688;23.298;2023-03-25T01:51:59;13.32;;;11.85;;
10687;SDS011;5392;42.688;23.298;2023-03-25T01:54:30;15.13;;;11.82;;
10687;SDS011;5392;42.688;23.298;2023-03-25T01:56:58;15.13;;;12.30;;
10687;SDS011;5392;42.688;23.298;2023-03-25T01:59:26;18.58;;;12.32;;
10687;SDS011;5392;42.688;23.298;2023-03-25T02:01:54;17.13;;;12.35;;
10687;SDS011;5392;42.688;23.298;2023-03-25T02:04:32;17.60;;;12.63;;
10687;SDS011;5392;42.688;23.298;2023-03-25T02:07:05;15.77;;;12.40;;
10687;SDS011;5392;42.688;23.298;2023-03-25T02:09:33;13.98;;;12.15;;
10687;SDS011;5392;42.688;23.298;2023-03-25T02:12:00;17.30;;;13.45;;
10687;SDS011;5392;42.688;23.298;2023-03-25T02:14:28;19.58;;;13.52;;
10687;SDS011;5392;42.688;23.298;2023-03-25T02:25:46;19.20;;;13.55;;
10687;SDS011;5392;42.688;23.298;2023-03-25T02:40:08;19.50;;;13.10;;
10687;SDS011;5392;42.688;23.298;2023-03-25T02:42:37;17.85;;;13.77;;
10687;SDS011;5392;42.688;23.298;2023-03-25T02:45:21;17.15;;;13.82;;
10687;SDS011;5392;42.688;23.298;2023-03-25T02:47:56;20.33;;;13.07;;
10687;SDS011;5392;42.688;23.298;2023-03-25T02:50:39;16.45;;;13.15;;
10687;SDS011;5392;42.688;23.298;2023-03-25T02:53:10;17.42;;;12.45;;
10687;SDS011;5392;42.688;23.298;2023-03-25T02:55:42;16.90;;;13.23;;
10687;SDS011;5392;42.688;23.298;2023-03-25T02:58:10;17.73;;;12.82;;
10687;SDS011;5392;42.688;23.298;2023-03-25T03:00:42;22.45;;;13.77;;
10687;SDS011;5392;42.688;23.298;2023-03-25T03:03:09;19.67;;;13.63;;
10687;SDS011;5392;42.688;23.298;2023-03-25T03:05:41;23.77;;;14.50;;
10687;SDS011;5392;42.688;23.298;2023-03-25T03:16:44;15.35;;;12.75;;
10687;SDS011;5392;42.688;23.298;2023-03-25T03:32:58;23.60;;;13.57;;
10687;SDS011;5392;42.688;23.298;2023-03-25T03:35:36;21.70;;;14.20;;
10687;SDS011;5392;42.688;23.298;2023-03-25T03:38:11;23.63;;;14.77;;
10687;SDS011;5392;42.688;23.298;2023-03-25T03:40:42;20.85;;;13.38;;
10687;SDS011;5392;42.688;23.298;2023-03-25T03:43:13;21.00;;;13.50;;
10687;SDS011;5392;42.688;23.298;2023-03-25T03:45:46;18.00;;;13.35;;
10687;SDS011;5392;42.688;23.298;2023-03-25T03:48:37;16.85;;;12.23;;
10687;SDS011;5392;42.688;23.298;2023-03-25T03:51:12;24.17;;;13.43;;
10687;SDS011;5392;42.688;23.298;2023-03-25T03:54:07;19.77;;;14.07;;
10687;SDS011;5392;42.688;23.298;2023-03-25T03:56:43;20.60;;;13.80;;
10687;SDS011;5392;42.688;23.298;2023-03-25T03:59:21;17.30;;;13.68;;
10687;SDS011;5392;42.688;23.298;2023-03-25T04:02:19;22.73;;;13.98;;
10687;SDS011;5392;42.688;23.298;2023-03-25T04:04:52;16.80;;;13.68;;
10687;SDS011;5392;42.688;23.298;2023-03-25T04:07:23;15.90;;;12.35;;
10687;SDS011;5392;42.688;23.298;2023-03-25T04:10:08;14.60;;;13.00;;
10687;SDS011;5392;42.688;23.298;2023-03-25T04:12:45;13.85;;;12.13;;
10687;SDS011;5392;42.688;23.298;2023-03-25T04:15:16;18.55;;;12.73;;
10687;SDS011;5392;42.688;23.298;2023-03-25T04:17:43;20.58;;;12.88;;
10687;SDS011;5392;42.688;23.298;2023-03-25T04:20:14;16.77;;;11.93;;
10687;SDS011;5392;42.688;23.298;2023-03-25T04:22:41;23.42;;;13.00;;
10687;SDS011;5392;42.688;23.298;2023-03-25T04:25:11;18.67;;;12.35;;
10687;SDS011;5392;42.688;23.298;2023-03-25T04:27:39;17.95;;;11.95;;
10687;SDS011;5392;42.688;23.298;2023-03-25T04:30:06;16.35;;;12.60;;
10687;SDS011;5392;42.688;23.298;2023-03-25T04:32:34;16.15;;;12.32;;
10687;SDS011;5392;42.688;23.298;2023-03-25T04:35:01;14.43;;;12.15;;
10687;SDS011;5392;42.688;23.298;2023-03-25T04:37:28;14.98;;;11.20;;
10687;SDS011;5392;42.688;23.298;2023-03-25T04:39:59;17.42;;;11.30;;
10687;SDS011;5392;42.688;23.298;2023-03-25T04:42:26;14.13;;;12.32;;
10687;SDS011;5392;42.688;23.298;2023-03-25T04:44:58;21.70;;;10.13;;
10687;SDS011;5392;42.688;23.298;2023-03-25T04:47:25;20.05;;;9.65;;
10687;SDS011;5392;42.688;23.298;2023-03-25T04:49:52;17.48;;;9.82;;
10687;SDS011;5392;42.688;23.298;2023-03-25T04:52:19;19.38;;;9.00;;
10687;SDS011;5392;42.688;23.298;2023-03-25T04:54:46;16.55;;;9.23;;
10687;SDS011;5392;42.688;23.298;2023-03-25T04:57:13;21.60;;;9.80;;
10687;SDS011;5392;42.688;23.298;2023-03-25T04:59:40;24.88;;;10.07;;
10687;SDS011;5392;42.688;23.298;2023-03-25T05:02:07;19.88;;;9.80;;
10687;SDS011;5392;42.688;23.298;2023-03-25T05:04:39;19.23;;;10.10;;
10687;SDS011;5392;42.688;23.298;2023-03-25T05:07:13;21.13;;;10.88;;
10687;SDS011;5392;42.688;23.298;2023-03-25T05:09:41;23.40;;;10.48;;
10687;SDS011;5392;42.688;23.298;2023-03-25T05:12:08;22.35;;;9.85;;
10687;SDS011;5392;42.688;23.298;2023-03-25T05:14:36;35.17;;;12.25;;
10687;SDS011;5392;42.688;23.298;2023-03-25T05:17:03;22.85;;;10.02;;
10687;SDS011;5392;42.688;23.298;2023-03-25T05:19:30;22.95;;;10.50;;
10687;SDS011;5392;42.688;23.298;2023-03-25T05:22:00;21.98;;;9.90;;
10687;SDS011;5392;42.688;23.298;2023-03-25T05:24:30;35.13;;;12.45;;
10687;SDS011;5392;42.688;23.298;2023-03-25T05:26:56;19.40;;;9.95;;
10687;SDS011;5392;42.688;23.298;2023-03-25T05:29:23;27.60;;;10.15;;
10687;SDS011;5392;42.688;23.298;2023-03-25T05:31:49;15.18;;;9.70;;
10687;SDS011;5392;42.688;23.298;2023-03-25T05:34:16;10.57;;;8.25;;
10687;SDS011;5392;42.688;23.298;2023-03-25T05:36:43;17.75;;;9.35;;
10687;SDS011;5392;42.688;23.298;2023-03-25T05:39:10;15.43;;;9.10;;
10687;SDS011;5392;42.688;23.298;2023-03-25T05:41:38;13.02;;;8.88;;
10687;SDS011;5392;42.688;23.298;2023-03-25T05:44:05;13.93;;;9.75;;
10687;SDS011;5392;42.688;23.298;2023-03-25T05:46:34;22.27;;;10.65;;
10687;SDS011;5392;42.688;23.298;2023-03-25T05:49:00;21.70;;;10.13;;
10687;SDS011;5392;42.688;23.298;2023-03-25T05:51:28;15.73;;;10.10;;
10687;SDS011;5392;42.688;23.298;2023-03-25T05:53:59;15.38;;;9.77;;
10687;SDS011;5392;42.688;23.298;2023-03-25T05:56:27;13.65;;;9.40;;
10687;SDS011;5392;42.688;23.298;2023-03-25T05:58:54;9.27;;;8.38;;
10687;SDS011;5392;42.688;23.298;2023-03-25T06:01:22;16.63;;;8.68;;
10687;SDS011;5392;42.688;23.298;2023-03-25T06:03:59;18.05;;;10.00;;
10687;SDS011;5392;42.688;23.298;2023-03-25T06:06:29;19.25;;;9.50;;
10687;SDS011;5392;42.688;23.298;2023-03-25T06:08:57;13.45;;;8.98;;
10687;SDS011;5392;42.688;23.298;2023-03-25T06:11:24;17.65;;;9.88;;
10687;SDS011;5392;42.688;23.298;2023-03-25T06:13:51;18.88;;;9.57;;
10687;SDS011;5392;42.688;23.298;2023-03-25T06:16:22;10.82;;;9.80;;
10687;SDS011;5392;42.688;23.298;2023-03-25T06:18:53;14.05;;;10.07;;
10687;SDS011;5392;42.688;23.298;2023-03-25T06:21:29;14.32;;;10.38;;
10687;SDS011;5392;42.688;23.298;2023-03-25T06:24:00;12.77;;;11.02;;
10687;SDS011;5392;42.688;23.298;2023-03-25T06:26:27;18.63;;;11.00;;
10687;SDS011;5392;42.688;23.298;2023-03-25T06:28:54;17.88;;;10.43;;
10687;SDS011;5392;42.688;23.298;2023-03-25T06:31:22;12.60;;;9.68;;
10687;SDS011;5392;42.688;23.298;2023-03-25T06:33:53;17.25;;;9.90;;
10687;SDS011;5392;42.688;23.298;2023-03-25T06:36:21;9.85;;;8.15;;
10687;SDS011;5392;42.688;23.298;2023-03-25T06:38:50;9.13;;;7.80;;
10687;SDS011;5392;42.688;23.298;2023-03-25T06:41:18;14.80;;;7.70;;
10687;SDS011;5392;42.688;23.298;2023-03-25T06:43:50;11.10;;;8.38;;
10687;SDS011;5392;42.688;23.298;2023-03-25T06:46:17;8.80;;;8.10;;
10687;SDS011;5392;42.688;23.298;2023-03-25T06:48:43;18.20;;;11.32;;
10687;SDS011;5392;42.688;23.298;2023-03-25T06:51:10;13.45;;;11.27;;
10687;SDS011;5392;42.688;23.298;2023-03-25T06:53:37;20.92;;;11.43;;
10687;SDS011;5392;42.688;23.298;2023-03-25T06:56:04;14.90;;;12.85;;
10687;SDS011;5392;42.688;23.298;2023-03-25T06:58:31;22.23;;;13.93;;
10687;SDS011;5392;42.688;23.298;2023-03-25T07:01:00;23.13;;;13.93;;
10687;SDS011;5392;42.688;23.298;2023-03-25T07:03:32;20.58;;;14.95;;
10687;SDS011;5392;42.688;23.298;2023-03-25T07:06:03;23.33;;;14.90;;
10687;SDS011;5392;42.688;23.298;2023-03-25T07:08:31;23.77;;;16.08;;
10687;SDS011;5392;42.688;23.298;2023-03-25T07:11:04;22.73;;;16.75;;
10687;SDS011;5392;42.688;23.298;2023-03-25T07:13:33;20.08;;;15.70;;
10687;SDS011;5392;42.688;23.298;2023-03-25T07:16:00;19.73;;;15.05;;
10687;SDS011;5392;42.688;23.298;2023-03-25T07:18:27;22.15;;;15.75;;
10687;SDS011;5392;42.688;23.298;2023-03-25T07:20:53;20.10;;;16.00;;
10687;SDS011;5392;42.688;23.298;2023-03-25T07:23:20;26.38;;;16.65;;
10687;SDS011;5392;42.688;23.298;2023-03-25T07:25:47;20.30;;;15.75;;
10687;SDS011;5392;42.688;23.298;2023-03-25T07:28:14;22.08;;;15.85;;
10687;SDS011;5392;42.688;23.298;2023-03-25T07:30:41;20.73;;;14.13;;
10687;SDS011;5392;42.688;23.298;2023-03-25T07:33:07;18.67;;;14.55;;
10687;SDS011;5392;42.688;23.298;2023-03-25T07:35:34;20.25;;;15.55;;
10687;SDS011;5392;42.688;23.298;2023-03-25T07:38:01;19.00;;;15.93;;
10687;SDS011;5392;42.688;23.298;2023-03-25T07:40:28;16.38;;;14.05;;
10687;SDS011;5392;42.688;23.298;2023-03-25T07:42:55;26.80;;;15.43;;
10687;SDS011;5392;42.688;23.298;2023-03-25T07:45:21;18.30;;;14.90;;
10687;SDS011;5392;42.688;23.298;2023-03-25T07:47:48;25.67;;;15.80;;
10687;SDS011;5392;42.688;23.298;2023-03-25T07:50:17;21.92;;;15.20;;
10687;SDS011;5392;42.688;23.298;2023-03-25T07:52:44;38.83;;;17.65;;
10687;SDS011;5392;42.688;23.298;2023-03-25T07:55:12;33.58;;;15.93;;
10687;SDS011;5392;42.688;23.298;2023-03-25T07:57:39;22.52;;;15.43;;
10687;SDS011;5392;42.688;23.298;2023-03-25T08:00:09;26.80;;;16.25;;
10687;SDS011;5392;42.688;23.298;2023-03-25T08:02:37;19.60;;;15.93;;
10687;SDS011;5392;42.688;23.298;2023-03-25T08:05:05;24.70;;;16.00;;
10687;SDS011;5392;42.688;23.298;2023-03-25T08:07:32;21.45;;;16.85;;
10687;SDS011;5392;42.688;23.298;2023-03-25T08:09:59;19.45;;;15.73;;
10687;SDS011;5392;42.688;23.298;2023-03-25T08:12:25;21.98;;;15.07;;
10687;SDS011;5392;42.688;23.298;2023-03-25T08:14:52;18.10;;;15.35;;
10687;SDS011;5392;42.688;23.298;2023-03-25T08:17:19;19.75;;;15.32;;
10687;SDS011;5392;42.688;23.298;2023-03-25T08:19:46;20.55;;;15.48;;
10687;SDS011;5392;42.688;23.298;2023-03-25T08:22:12;17.33;;;15.50;;
10687;SDS011;5392;42.688;23.298;2023-03-25T08:24:39;20.02;;;16.83;;
10687;SDS011;5392;42.688;23.298;2023-03-25T08:27:06;18.65;;;16.45;;
10687;SDS011;5392;42.688;23.298;2023-03-25T08:29:41;19.25;;;15.90;;
10687;SDS011;5392;42.688;23.298;2023-03-25T08:32:08;18.73;;;15.10;;
10687;SDS011;5392;42.688;23.298;2023-03-25T08:34:35;17.15;;;15.30;;
10687;SDS011;5392;42.688;23.298;2023-03-25T08:37:05;23.83;;;15.43;;
10687;SDS011;5392;42.688;23.298;2023-03-25T08:39:36;20.05;;;15.13;;
10687;SDS011;5392;42.688;23.298;2023-03-25T08:42:06;21.13;;;15.60;;
10687;SDS011;5392;42.688;23.298;2023-03-25T08:44:33;21.33;;;15.13;;
10687;SDS011;5392;42.688;23.298;2023-03-25T08:47:00;20.65;;;14.38;;
10687;SDS011;5392;42.688;23.298;2023-03-25T08:49:27;17.80;;;14.10;;
10687;SDS011;5392;42.688;23.298;2023-03-25T08:51:53;18.92;;;14.65;;
10687;SDS011;5392;42.688;23.298;2023-03-25T08:54:23;16.80;;;13.43;;
10687;SDS011;5392;42.688;23.298;2023-03-25T08:56:51;18.17;;;14.07;;
10687;SDS011;5392;42.688;23.298;2023-03-25T08:59:20;16.95;;;13.32;;
10687;SDS011;5392;42.688;23.298;2023-03-25T09:01:47;17.30;;;13.40;;
10687;SDS011;5392;42.688;23.298;2023-03-25T09:04:14;17.02;;;12.60;;
10687;SDS011;5392;42.688;23.298;2023-03-25T09:06:41;19.10;;;13.02;;
10687;SDS011;5392;42.688;23.298;2023-03-25T09:09:13;17.88;;;12.52;;
10687;SDS011;5392;42.688;23.298;2023-03-25T09:11:40;15.25;;;12.15;;
10687;SDS011;5392;42.688;23.298;2023-03-25T09:14:07;19.70;;;12.93;;
10687;SDS011;5392;42.688;23.298;2023-03-25T09:16:33;19.35;;;12.82;;
10687;SDS011;5392;42.688;23.298;2023-03-25T09:19:00;15.88;;;12.82;;
10687;SDS011;5392;42.688;23.298;2023-03-25T09:21:28;40.05;;;15.68;;
10687;SDS011;5392;42.688;23.298;2023-03-25T09:23:55;12.77;;;11.55;;
10687;SDS011;5392;42.688;23.298;2023-03-25T09:26:21;12.10;;;10.43;;
10687;SDS011;5392;42.688;23.298;2023-03-25T09:28:48;15.48;;;10.43;;
10687;SDS011;5392;42.688;23.298;2023-03-25T09:31:15;14.75;;;10.95;;
10687;SDS011;5392;42.688;23.298;2023-03-25T09:33:42;13.27;;;11.32;;
10687;SDS011;5392;42.688;23.298;2023-03-25T09:36:08;9.18;;;7.72;;
10687;SDS011;5392;42.688;23.298;2023-03-25T09:38:37;8.80;;;6.88;;
10687;SDS011;5392;42.688;23.298;2023-03-25T09:41:11;10.98;;;7.93;;
10687;SDS011;5392;42.688;23.298;2023-03-25T09:43:52;13.52;;;7.68;;
10687;SDS011;5392;42.688;23.298;2023-03-25T09:46:27;9.57;;;7.05;;
10687;SDS011;5392;42.688;23.298;2023-03-25T09:48:54;10.05;;;7.13;;
10687;SDS011;5392;42.688;23.298;2023-03-25T09:51:31;9.05;;;6.30;;
10687;SDS011;5392;42.688;23.298;2023-03-25T09:54:11;5.45;;;3.50;;
10687;SDS011;5392;42.688;23.298;2023-03-25T09:56:45;7.97;;;3.95;;
10687;SDS011;5392;42.688;23.298;2023-03-25T09:59:21;3.83;;;3.05;;
10687;SDS011;5392;42.688;23.298;2023-03-25T10:04:43;9.73;;;2.90;;
10687;SDS011;5392;42.688;23.298;2023-03-25T10:13:02;5.68;;;1.80;;
10687;SDS011;5392;42.688;23.298;2023-03-25T10:21:10;0.88;;;0.75;;
10687;SDS011;5392;42.688;23.298;2023-03-25T10:24:03;1.33;;;0.70;;
10687;SDS011;5392;42.688;23.298;2023-03-25T10:29:15;2.28;;;0.93;;
10687;SDS011;5392;42.688;23.298;2023-03-25T10:31:48;2.85;;;1.10;;
10687;SDS011;5392;42.688;23.298;2023-03-25T10:34:22;3.53;;;1.05;;
10687;SDS011;5392;42.688;23.298;2023-03-25T10:37:00;4.93;;;1.00;;
10687;SDS011;5392;42.688;23.298;2023-03-25T10:39:30;1.35;;;0.90;;
10687;SDS011;5392;42.688;23.298;2023-03-25T10:42:10;1.88;;;0.70;;
10687;SDS011;5392;42.688;23.298;2023-03-25T10:44:44;1.88;;;0.82;;
10687;SDS011;5392;42.688;23.298;2023-03-25T10:47:17;1.65;;;0.80;;
10687;SDS011;5392;42.688;23.298;2023-03-25T10:49:48;1.92;;;0.90;;
10687;SDS011;5392;42.688;23.298;2023-03-25T10:52:17;4.53;;;1.02;;
10687;SDS011;5392;42.688;23.298;2023-03-25T10:54:45;4.18;;;1.17;;
10687;SDS011;5392;42.688;23.298;2023-03-25T10:57:25;1.42;;;0.80;;
10687;SDS011;5392;42.688;23.298;2023-03-25T11:00:08;5.47;;;1.77;;
10687;SDS011;5392;42.688;23.298;2023-03-25T11:02:44;1.33;;;1.23;;
10687;SDS011;5392;42.688;23.298;2023-03-25T11:05:12;1.15;;;1.08;;
10687;SDS011;5392;42.688;23.298;2023-03-25T11:07:49;2.67;;;1.38;;
10687;SDS011;5392;42.688;23.298;2023-03-25T11:10:25;1.02;;;1.02;;
10687;SDS011;5392;42.688;23.298;2023-03-25T11:13:00;1.15;;;0.80;;
10687;SDS011;5392;42.688;23.298;2023-03-25T11:15:35;2.78;;;0.80;;
10687;SDS011;5392;42.688;23.298;2023-03-25T11:18:04;1.42;;;0.80;;
10687;SDS011;5392;42.688;23.298;2023-03-25T11:20:39;4.53;;;1.10;;
10687;SDS011;5392;42.688;23.298;2023-03-25T11:23:21;1.05;;;0.90;;
10687;SDS011;5392;42.688;23.298;2023-03-25T11:25:53;1.88;;;0.73;;
10687;SDS011;5392;42.688;23.298;2023-03-25T11:28:23;0.95;;;0.82;;
10687;SDS011;5392;42.688;23.298;2023-03-25T11:31:11;3.80;;;1.67;;
10687;SDS011;5392;42.688;23.298;2023-03-25T11:33:39;2.45;;;0.98;;
10687;SDS011;5392;42.688;23.298;2023-03-25T11:36:24;2.60;;;0.70;;
10687;SDS011;5392;42.688;23.298;2023-03-25T11:38:56;0.85;;;0.60;;
10687;SDS011;5392;42.688;23.298;2023-03-25T11:41:28;0.60;;;0.60;;
10687;SDS011;5392;42.688;23.298;2023-03-25T11:43:58;0.60;;;0.60;;
10687;SDS011;5392;42.688;23.298;2023-03-25T11:46:25;0.60;;;0.60;;
10687;SDS011;5392;42.688;23.298;2023-03-25T11:48:52;0.60;;;0.60;;
10687;SDS011;5392;42.688;23.298;2023-03-25T11:51:20;1.45;;;0.55;;
10687;SDS011;5392;42.688;23.298;2023-03-25T11:53:54;0.50;;;0.50;;
10687;SDS011;5392;42.688;23.298;2023-03-25T11:56:33;1.08;;;0.60;;
10687;SDS011;5392;42.688;23.298;2023-03-25T11:59:06;1.30;;;0.60;;
10687;SDS011;5392;42.688;23.298;2023-03-25T12:02:15;2.47;;;0.70;;
10687;SDS011;5392;42.688;23.298;2023-03-25T12:04:56;3.08;;;0.70;;
10687;SDS011;5392;42.688;23.298;2023-03-25T12:07:26;2.75;;;0.70;;
10687;SDS011;5392;42.688;23.298;2023-03-25T12:09:54;2.28;;;0.60;;
10687;SDS011;5392;42.688;23.298;2023-03-25T12:12:29;1.63;;;0.70;;
10687;SDS011;5392;42.688;23.298;2023-03-25T12:20:56;1.80;;;0.60;;
10687;SDS011;5392;42.688;23.298;2023-03-25T12:30:02;0.77;;;0.50;;
10687;SDS011;5392;42.688;23.298;2023-03-25T12:32:37;0.60;;;0.50;;
10687;SDS011;5392;42.688;23.298;2023-03-25T12:35:29;1.52;;;0.50;;
10687;SDS011;5392;42.688;23.298;2023-03-25T12:57:42;0.70;;;0.60;;
10687;SDS011;5392;42.688;23.298;2023-03-25T13:08:58;0.98;;;0.50;;
10687;SDS011;5392;42.688;23.298;2023-03-25T13:11:44;0.80;;;0.60;;
10687;SDS011;5392;42.688;23.298;2023-03-25T13:14:22;2.58;;;0.70;;
10687;SDS011;5392;42.688;23.298;2023-03-25T13:16:54;4.22;;;0.60;;
10687;SDS011;5392;42.688;23.298;2023-03-25T13:19:25;1.92;;;0.98;;
10687;SDS011;5392;42.688;23.298;2023-03-25T13:21:55;1.92;;;0.70;;
10687;SDS011;5392;42.688;23.298;2023-03-25T13:27:09;8.90;;;1.42;;
10687;SDS011;5392;42.688;23.298;2023-03-25T13:32:28;1.80;;;0.90;;
10687;SDS011;5392;42.688;23.298;2023-03-25T13:35:03;4.05;;;0.82;;
10687;SDS011;5392;42.688;23.298;2023-03-25T13:37:34;4.28;;;1.30;;
10687;SDS011;5392;42.688;23.298;2023-03-25T13:46:54;2.53;;;1.00;;
10687;SDS011;5392;42.688;23.298;2023-03-25T13:51:26;2.15;;;1.50;;
10687;SDS011;5392;42.688;23.298;2023-03-25T13:54:01;3.20;;;1.23;;
10687;SDS011;5392;42.688;23.298;2023-03-25T13:56:47;1.77;;;1.02;;
10687;SDS011;5392;42.688;23.298;2023-03-25T14:07:47;2.25;;;2.15;;
10687;SDS011;5392;42.688;23.298;2023-03-25T14:10:38;3.80;;;1.50;;
10687;SDS011;5392;42.688;23.298;2023-03-25T14:13:14;1.13;;;1.13;;
10687;SDS011;5392;42.688;23.298;2023-03-25T14:15:52;1.58;;;1.25;;
10687;SDS011;5392;42.688;23.298;2023-03-25T14:18:27;1.05;;;0.80;;
10687;SDS011;5392;42.688;23.298;2023-03-25T14:20:59;5.40;;;0.95;;
10687;SDS011;5392;42.688;23.298;2023-03-25T14:23:40;3.08;;;1.60;;
10687;SDS011;5392;42.688;23.298;2023-03-25T14:26:09;3.22;;;1.38;;
10687;SDS011;5392;42.688;23.298;2023-03-25T14:28:40;1.98;;;1.27;;
10687;SDS011;5392;42.688;23.298;2023-03-25T14:42:00;2.15;;;1.63;;
10687;SDS011;5392;42.688;23.298;2023-03-25T14:44:28;6.35;;;1.90;;
10687;SDS011;5392;42.688;23.298;2023-03-25T14:47:29;1.13;;;1.10;;
10687;SDS011;5392;42.688;23.298;2023-03-25T14:52:47;1.35;;;1.10;;
10687;SDS011;5392;42.688;23.298;2023-03-25T14:55:19;2.70;;;1.25;;
10687;SDS011;5392;42.688;23.298;2023-03-25T14:57:55;10.93;;;2.30;;
10687;SDS011;5392;42.688;23.298;2023-03-25T15:00:30;5.80;;;2.22;;
10687;SDS011;5392;42.688;23.298;2023-03-25T15:03:03;2.05;;;1.90;;
10687;SDS011;5392;42.688;23.298;2023-03-25T15:05:36;3.08;;;2.53;;
10687;SDS011;5392;42.688;23.298;2023-03-25T15:10:36;3.45;;;1.63;;
10687;SDS011;5392;42.688;23.298;2023-03-25T15:13:05;1.92;;;1.40;;
10687;SDS011;5392;42.688;23.298;2023-03-25T15:15:55;2.15;;;1.23;;
10687;SDS011;5392;42.688;23.298;2023-03-25T15:26:12;1.70;;;1.60;;
10687;SDS011;5392;42.688;23.298;2023-03-25T15:28:53;1.42;;;1.33;;
10687;SDS011;5392;42.688;23.298;2023-03-25T15:47:21;2.17;;;1.40;;
10687;SDS011;5392;42.688;23.298;2023-03-25T15:52:50;1.90;;;1.80;;
10687;SDS011;5392;42.688;23.298;2023-03-25T15:55:34;1.85;;;1.70;;
10687;SDS011;5392;42.688;23.298;2023-03-25T15:58:14;2.22;;;2.03;;
10687;SDS011;5392;42.688;23.298;2023-03-25T16:00:49;4.15;;;1.88;;
10687;SDS011;5392;42.688;23.298;2023-03-25T16:03:20;12.18;;;2.72;;
10687;SDS011;5392;42.688;23.298;2023-03-25T16:05:52;2.80;;;2.38;;
10687;SDS011;5392;42.688;23.298;2023-03-25T16:08:29;3.30;;;2.70;;
10687;SDS011;5392;42.688;23.298;2023-03-25T16:11:12;6.45;;;2.80;;
10687;SDS011;5392;42.688;23.298;2023-03-25T16:13:45;3.65;;;2.60;;
10687;SDS011;5392;42.688;23.298;2023-03-25T16:16:13;10.30;;;3.70;;
10687;SDS011;5392;42.688;23.298;2023-03-25T16:18:43;15.25;;;3.47;;
10687;SDS011;5392;42.688;23.298;2023-03-25T16:21:11;8.68;;;3.72;;
10687;SDS011;5392;42.688;23.298;2023-03-25T16:23:40;16.10;;;4.05;;
10687;SDS011;5392;42.688;23.298;2023-03-25T16:26:10;4.30;;;2.72;;
10687;SDS011;5392;42.688;23.298;2023-03-25T16:28:41;7.28;;;3.95;;
10687;SDS011;5392;42.688;23.298;2023-03-25T16:31:13;3.60;;;2.58;;
10687;SDS011;5392;42.688;23.298;2023-03-25T16:34:00;4.55;;;3.15;;
10687;SDS011;5392;42.688;23.298;2023-03-25T16:36:26;4.30;;;3.90;;
10687;SDS011;5392;42.688;23.298;2023-03-25T16:38:54;4.55;;;4.15;;
10687;SDS011;5392;42.688;23.298;2023-03-25T16:41:22;7.15;;;3.45;;
10687;SDS011;5392;42.688;23.298;2023-03-25T16:43:49;8.90;;;4.10;;
10687;SDS011;5392;42.688;23.298;2023-03-25T16:46:18;8.43;;;2.45;;
10687;SDS011;5392;42.688;23.298;2023-03-25T16:48:48;5.97;;;2.58;;
10687;SDS011;5392;42.688;23.298;2023-03-25T16:51:22;2.03;;;2.00;;
10687;SDS011;5392;42.688;23.298;2023-03-25T16:53:55;8.57;;;3.00;;
10687;SDS011;5392;42.688;23.298;2023-03-25T16:56:31;3.40;;;3.08;;
10687;SDS011;5392;42.688;23.298;2023-03-25T16:59:04;5.50;;;2.80;;
10687;SDS011;5392;42.688;23.298;2023-03-25T17:01:41;10.13;;;2.58;;
10687;SDS011;5392;42.688;23.298;2023-03-25T17:06:48;8.18;;;3.13;;
10687;SDS011;5392;42.688;23.298;2023-03-25T17:09:19;9.88;;;3.25;;
10687;SDS011;5392;42.688;23.298;2023-03-25T17:11:50;5.80;;;2.58;;
10687;SDS011;5392;42.688;23.298;2023-03-25T17:14:20;3.53;;;2.15;;
10687;SDS011;5392;42.688;23.298;2023-03-25T17:16:50;5.25;;;2.67;;
10687;SDS011;5392;42.688;23.298;2023-03-25T17:19:19;10.68;;;4.10;;
10687;SDS011;5392;42.688;23.298;2023-03-25T17:22:02;10.25;;;5.88;;
10687;SDS011;5392;42.688;23.298;2023-03-25T17:24:39;9.95;;;5.20;;
10687;SDS011;5392;42.688;23.298;2023-03-25T17:27:40;12.73;;;5.50;;
10687;SDS011;5392;42.688;23.298;2023-03-25T17:30:18;13.00;;;6.75;;
10687;SDS011;5392;42.688;23.298;2023-03-25T17:33:09;8.93;;;5.22;;
10687;SDS011;5392;42.688;23.298;2023-03-25T17:35:49;11.07;;;6.05;;
10687;SDS011;5392;42.688;23.298;2023-03-25T17:38:22;12.75;;;7.22;;
10687;SDS011;5392;42.688;23.298;2023-03-25T17:43:46;11.27;;;7.20;;
10687;SDS011;5392;42.688;23.298;2023-03-25T17:46:22;13.82;;;8.18;;
10687;SDS011;5392;42.688;23.298;2023-03-25T17:48:51;12.52;;;7.82;;